Arroio Grande, Brazil
Current Conditions -  °F | °C
As of 10:00 AM on Wednesday 22 Oct 2014 (Local Time) from SBPK Reporting Station
Few Clouds Few Clouds  
Wind Chill: 68°   Ceiling: Unl
Heat Index: 68°   Visibility: 6mi
Dew Point: 63°   Wind: 10mph
Humidity: 83%   Direction: 50°NE
Pressure: 30.18"   Gusts: NA
Location:  32.24°S, 53.09°W
Report Text: SBPK 221200Z 05009KT 9999 FEW015 20/17 Q1022
Loading
Personal Weather Stations






























Interactive Weather Map
Tropical Storm Tracking
New forecast layout! Learn more

10-Day Weather Forecast

Advertisements
Track Severe Weather on mobile